Time;durP1;ratioP1;P1;durP2;ratioP2;P2;SDS_P1;SDS_P2;PMS_P1;PMS_P2;Temp;Humidity;BMP_temperature;BMP_pressure;BME280_temperature;BME280_humidity;BME280_pressure;Samples;Min_cycle;Max_cycle;Signal;HPM_P1;HPM_P2
2022/12/17 13:06:30;;;;;;;60.00;31.30;;;;;;;-5.23;95.45;97049.13;105746;1295;22622;-80
2022/12/17 13:09:19;;;;;;;61.60;30.70;;;;;;;-5.23;95.38;97059.26;105612;1288;23650;-80
2022/12/17 13:11:56;;;;;;;70.40;35.90;;;;;;;-5.25;95.40;97064.80;105733;1294;22496;-80
2022/12/17 13:14:31;;;;;;;61.80;30.20;;;;;;;-5.26;95.41;97065.29;105615;1303;22471;-80
2022/12/17 13:17:05;;;;;;;65.10;31.80;;;;;;;-5.25;95.41;97064.35;105768;1278;22453;-80
2022/12/17 13:19:38;;;;;;;78.70;39.90;;;;;;;-5.25;95.54;97065.15;105662;1295;24254;-80
2022/12/17 13:22:29;;;;;;;45.70;24.50;;;;;;;-5.23;95.61;97073.93;105750;1275;22610;-80
2022/12/17 13:25:17;;;;;;;75.00;37.20;;;;;;;-5.23;95.75;97083.43;105609;1282;23683;-80
2022/12/17 13:27:50;;;;;;;70.70;40.00;;;;;;;-5.23;95.77;97079.61;105629;1302;22526;-80
2022/12/17 13:30:30;;;;;;;71.40;38.80;;;;;;;-5.20;95.60;97079.92;105505;1302;22489;-79
2022/12/17 13:33:15;;;;;;;67.50;35.90;;;;;;;-5.17;95.68;97085.77;105512;1298;22473;-79
2022/12/17 13:35:56;;;;;;;67.60;37.90;;;;;;;-5.14;95.67;97087.57;105487;1293;22458;-80
2022/12/17 13:38:36;;;;;;;70.20;36.20;;;;;;;-5.10;95.92;97096.91;105490;1302;22517;-79
2022/12/17 13:41:09;;;;;;;67.60;34.40;;;;;;;-5.08;95.87;97104.23;105561;1286;22472;-79
2022/12/17 13:43:45;;;;;;;60.60;31.40;;;;;;;-5.09;95.92;97107.95;105731;1302;22592;-79
2022/12/17 13:46:21;;;;;;;61.70;31.90;;;;;;;-5.09;95.90;97108.73;105775;1289;23831;-79
2022/12/17 13:48:57;;;;;;;67.80;37.30;;;;;;;-5.11;95.96;97112.04;105841;1279;23252;-80
2022/12/17 13:51:29;;;;;;;62.10;31.90;;;;;;;-5.12;96.00;97118.86;105844;1303;22573;-79
2022/12/17 13:54:00;;;;;;;45.30;24.40;;;;;;;-5.13;95.81;97119.52;105741;1284;40753;-80
2022/12/17 13:56:32;;;;;;;70.90;38.40;;;;;;;-5.16;96.25;97129.12;105806;1288;22615;-79
2022/12/17 13:59:06;;;;;;;54.70;27.40;;;;;;;-5.18;96.43;97137.48;105819;1280;22544;-79
2022/12/17 14:01:45;;;;;;;71.60;36.90;;;;;;;-5.21;96.54;97140.34;105755;1278;26581;-80
2022/12/17 14:04:24;;;;;;;87.30;42.50;;;;;;;-5.21;96.82;97151.02;105736;1302;22462;-80
2022/12/17 14:06:59;;;;;;;60.90;29.10;;;;;;;-5.21;96.83;97152.29;105802;1294;22516;-80
2022/12/17 14:09:32;;;;;;;77.00;36.10;;;;;;;-5.24;96.96;97158.72;105787;1273;22476;-79
2022/12/17 14:12:21;;;;;;;49.20;26.50;;;;;;;-5.24;96.88;97166.67;105599;1288;22492;-80
2022/12/17 14:14:54;;;;;;;55.90;29.40;;;;;;;-5.24;96.72;97171.90;105740;1303;22855;-80
2022/12/17 14:17:26;;;;;;;76.70;39.00;;;;;;;-5.26;96.70;97170.17;105748;1302;22518;-80
2022/12/17 14:20:02;;;;;;;79.60;37.10;;;;;;;-5.28;96.66;97171.56;105658;1270;22467;-80
2022/12/17 14:22:37;;;;;;;58.80;24.20;;;;;;;-5.28;96.76;97171.60;105628;1281;25377;-79
2022/12/17 14:25:16;;;;;;;63.70;29.90;;;;;;;-5.28;96.78;97168.02;105678;1288;22465;-80
2022/12/17 14:27:55;;;;;;;57.90;29.20;;;;;;;-5.29;96.69;97179.09;105830;1276;22140;-80
2022/12/17 14:30:34;;;;;;;62.10;29.60;;;;;;;-5.28;96.74;97180.41;105782;1304;22505;-80
2022/12/17 14:33:07;;;;;;;55.80;26.50;;;;;;;-5.29;96.66;97184.46;105573;1282;22855;-80
2022/12/17 14:35:41;;;;;;;74.00;36.60;;;;;;;-5.27;96.69;97185.00;105677;1288;22502;-79
2022/12/17 14:38:18;;;;;;;58.10;28.10;;;;;;;-5.27;96.93;97204.38;105788;1304;22471;-80
2022/12/17 14:40:48;;;;;;;48.30;25.40;;;;;;;-5.26;96.89;97207.77;105580;1295;25871;-80
2022/12/17 14:43:23;;;;;;;61.10;27.80;;;;;;;-5.27;96.81;97212.20;105605;1288;22500;-80
2022/12/17 14:49:00;;;;;;;54.60;27.50;;;;;;;-5.27;96.98;97225.13;105825;1278;22462;-79
2022/12/17 14:51:33;;;;;;;52.70;27.60;;;;;;;-5.26;97.01;97229.09;105759;1275;22456;-79
2022/12/17 14:54:29;;;;;;;57.60;28.40;;;;;;;-5.25;96.99;97228.86;105563;1303;58872;-79
2022/12/17 14:57:04;;;;;;;61.00;30.20;;;;;;;-5.24;96.85;97232.31;105841;1279;22445;-79
2022/12/17 14:59:37;;;;;;;65.00;33.70;;;;;;;-5.22;96.79;97244.00;105881;1295;25266;-79
2022/12/17 15:02:22;;;;;;;70.30;35.40;;;;;;;-5.20;96.86;97253.29;105670;1278;22461;-79
2022/12/17 15:04:55;;;;;;;63.00;30.40;;;;;;;-5.20;96.89;97254.98;105652;1302;50988;-80
2022/12/17 15:07:27;;;;;;;77.00;39.30;;;;;;;-5.19;96.89;97261.95;105816;1297;22514;-80
2022/12/17 15:10:10;;;;;;;73.60;35.90;;;;;;;-5.19;96.84;97261.42;105556;1281;23724;-80
2022/12/17 15:12:44;;;;;;;52.80;26.50;;;;;;;-5.18;96.91;97266.34;105507;1285;25633;-79
2022/12/17 15:15:14;;;;;;;63.70;30.60;;;;;;;-5.15;96.96;97267.95;105449;1292;22468;-80
2022/12/17 15:17:44;;;;;;;63.20;31.30;;;;;;;-5.13;96.88;97268.04;105531;1280;23673;-79
2022/12/17 15:20:21;;;;;;;68.70;35.20;;;;;;;-5.14;96.82;97267.98;105536;1302;25354;-79
2022/12/17 15:22:51;;;;;;;41.20;20.90;;;;;;;-5.13;96.80;97269.01;105499;1302;33587;-79
2022/12/17 15:25:20;;;;;;;62.70;27.40;;;;;;;-5.12;96.81;97277.53;105507;1302;23356;-80
2022/12/17 15:27:48;;;;;;;75.40;36.70;;;;;;;-5.12;96.66;97279.95;105544;1302;22464;-80
2022/12/17 15:30:18;;;;;;;73.40;35.60;;;;;;;-5.12;96.77;97284.84;105538;1284;22531;-80
2022/12/17 15:32:49;;;;;;;78.40;38.40;;;;;;;-5.12;96.69;97286.48;105525;1288;22476;-79
2022/12/17 15:35:19;;;;;;;79.40;39.60;;;;;;;-5.11;96.78;97289.48;105463;1284;26682;-79
2022/12/17 15:37:48;;;;;;;81.70;39.50;;;;;;;-5.08;96.83;97297.94;105563;1284;22649;-79
2022/12/17 15:40:18;;;;;;;85.10;42.90;;;;;;;-5.09;96.79;97296.36;105503;1277;24321;-79
2022/12/17 15:45:36;;;;;;;83.90;41.60;;;;;;;-5.10;96.88;97298.34;105752;1288;22483;-79
2022/12/17 15:48:06;;;;;;;77.90;36.50;;;;;;;-5.08;96.96;97305.45;105648;1275;22482;-80
2022/12/17 15:50:35;;;;;;;85.30;41.80;;;;;;;-5.09;96.87;97304.96;105629;1295;22501;-79
2022/12/17 15:53:05;;;;;;;56.00;33.20;;;;;;;-5.07;96.83;97311.19;105760;1304;22851;-79
2022/12/17 15:55:35;;;;;;;73.50;37.60;;;;;;;-5.06;96.88;97311.60;105740;1288;53302;-79
2022/12/17 15:58:05;;;;;;;73.00;37.10;;;;;;;-5.04;96.89;97309.34;105788;1302;22471;-79
2022/12/17 16:00:33;;;;;;;;;;;;;;;-5.05;96.85;97311.31;105621;1303;24232;-79
2022/12/17 16:03:01;;;;;;;84.90;41.00;;;;;;;-5.05;96.80;97313.09;105757;1287;24025;-80
2022/12/17 16:05:30;;;;;;;84.80;42.90;;;;;;;-5.07;96.83;97312.71;105700;1282;24457;-80
2022/12/17 16:08:01;;;;;;;78.90;39.50;;;;;;;-5.08;96.85;97312.10;105613;1303;22494;-80
2022/12/17 16:10:29;;;;;;;;;;;;;;;-5.07;96.89;97313.21;105610;1292;22609;-80
2022/12/17 16:12:58;;;;;;;70.00;35.20;;;;;;;-5.05;97.03;97309.56;105735;1302;27043;-80
2022/12/17 16:15:31;;;;;;;62.90;30.70;;;;;;;-5.03;96.97;97310.89;105690;1302;22518;-80
2022/12/17 16:17:59;;;;;;;73.00;33.80;;;;;;;-5.02;96.97;97313.21;105734;1301;22597;-80
2022/12/17 16:20:28;;;;;;;72.30;36.70;;;;;;;-5.00;96.79;97316.86;105691;1282;24934;-80
2022/12/17 16:22:57;;;;;;;64.00;27.20;;;;;;;-4.98;96.81;97317.75;105699;1282;22842;-80
2022/12/17 16:25:25;;;;;;;35.70;17.90;;;;;;;-4.95;96.75;97321.42;105519;1288;28255;-80
2022/12/17 16:27:54;;;;;;;61.10;27.50;;;;;;;-4.93;96.64;97316.07;105567;1303;23866;-80
2022/12/17 16:30:22;;;;;;;60.60;28.10;;;;;;;-4.91;96.55;97309.34;105732;1300;22515;-80
2022/12/17 16:32:51;;;;;;;51.00;23.10;;;;;;;-4.91;96.53;97309.95;105725;1303;22683;-80
2022/12/17 16:35:20;;;;;;;52.60;24.30;;;;;;;-4.89;96.35;97316.84;105666;1303;22820;-80
2022/12/17 16:37:49;;;;;;;49.90;21.90;;;;;;;-4.90;96.53;97321.90;105773;1282;24254;-80
2022/12/17 16:40:17;;;;;;;57.50;25.10;;;;;;;-4.89;96.48;97323.58;105741;1290;22490;-80
2022/12/17 16:42:47;;;;;;;53.50;24.60;;;;;;;-4.88;96.50;97327.54;105706;1303;22962;-80
2022/12/17 16:45:16;;;;;;;71.30;34.70;;;;;;;-4.87;96.40;97337.66;105440;1302;44483;-80
2022/12/17 16:47:45;;;;;;;60.60;29.10;;;;;;;-4.87;96.47;97339.89;105493;1296;22473;-80
2022/12/17 16:50:15;;;;;;;54.00;23.10;;;;;;;-4.88;96.38;97344.93;105553;1302;22470;-80
2022/12/17 16:52:44;;;;;;;52.20;24.80;;;;;;;-4.86;96.38;97349.46;105533;1302;22498;-79
2022/12/17 16:55:13;;;;;;;56.20;27.00;;;;;;;-4.85;96.23;97352.23;105526;1302;23706;-80
2022/12/17 16:57:41;;;;;;;65.70;28.70;;;;;;;-4.84;96.33;97353.10;105506;1296;22469;-79
2022/12/17 17:00:13;;;;;;;60.20;24.70;;;;;;;-4.82;96.17;97359.20;105475;1303;25255;-80
2022/12/17 17:02:42;;;;;;;65.80;27.40;;;;;;;-4.82;96.18;97360.83;105492;1290;27402;-80
2022/12/17 17:05:11;;;;;;;57.40;27.30;;;;;;;-4.82;96.29;97369.65;105492;1281;22508;-80
2022/12/17 17:07:41;;;;;;;48.50;24.50;;;;;;;-4.81;96.25;97371.13;105503;1275;23733;-80
2022/12/17 17:10:11;;;;;;;55.60;26.70;;;;;;;-4.79;96.26;97367.32;105512;1281;22521;-80
2022/12/17 17:12:42;;;;;;;58.20;27.10;;;;;;;-4.77;96.30;97377.94;105543;1296;22447;-80
2022/12/17 17:15:12;;;;;;;64.20;29.10;;;;;;;-4.75;96.35;97379.85;105420;1287;22474;-80
2022/12/17 17:17:44;;;;;;;72.50;31.10;;;;;;;-4.75;96.26;97385.50;105567;1302;23863;-79
2022/12/17 17:20:14;;;;;;;68.50;33.70;;;;;;;-4.74;96.26;97389.90;105517;1288;22544;-80
2022/12/17 17:22:44;;;;;;;65.20;28.60;;;;;;;-4.71;96.42;97392.02;105469;1303;23710;-80
2022/12/17 17:25:13;;;;;;;60.50;28.00;;;;;;;-4.69;96.34;97396.48;105511;1296;22440;-80
2022/12/17 17:27:43;;;;;;;62.80;25.00;;;;;;;-4.69;96.31;97396.48;105539;1287;23489;-80
2022/12/17 17:30:14;;;;;;;70.30;32.40;;;;;;;-4.70;96.40;97395.80;105473;1284;24268;-80
2022/12/17 17:32:44;;;;;;;79.30;34.10;;;;;;;-4.70;96.33;97400.65;105591;1279;24322;-79
2022/12/17 17:35:14;;;;;;;64.10;30.90;;;;;;;-4.70;96.48;97412.00;105511;1302;22471;-79
2022/12/17 17:37:44;;;;;;;74.40;33.80;;;;;;;-4.70;96.59;97413.29;105532;1297;25381;-79
2022/12/17 17:40:14;;;;;;;81.50;37.90;;;;;;;-4.70;96.56;97417.59;105534;1297;22488;-80
2022/12/17 17:42:45;;;;;;;;;;;;;;;-4.70;96.64;97419.59;105586;1296;22468;-79
2022/12/17 17:45:15;;;;;;;56.30;25.50;;;;;;;-4.70;96.71;97425.88;105451;1290;45086;-79
2022/12/17 17:47:45;;;;;;;64.00;28.60;;;;;;;-4.73;96.88;97429.95;105510;1302;22521;-79
2022/12/17 17:50:15;;;;;;;79.60;37.90;;;;;;;-4.75;96.95;97430.92;105511;1288;22488;-79
2022/12/17 17:52:44;;;;;;;71.30;33.40;;;;;;;-4.78;97.12;97435.83;105473;1303;22490;-79
2022/12/17 17:55:12;;;;;;;82.50;39.80;;;;;;;-4.80;97.14;97440.09;105531;1296;22475;-80
2022/12/17 17:57:41;;;;;;;82.10;37.50;;;;;;;-4.82;97.14;97444.98;105481;1282;22474;-79
2022/12/17 18:00:13;;;;;;;81.70;39.00;;;;;;;-4.82;97.22;97446.39;105519;1302;22495;-79
2022/12/17 18:02:41;;;;;;;86.10;41.30;;;;;;;-4.81;97.24;97448.33;105511;1302;34925;-79
2022/12/17 18:05:10;;;;;;;84.00;38.80;;;;;;;-4.79;97.37;97456.61;105475;1296;22485;-80
2022/12/17 18:07:45;;;;;;;74.80;34.00;;;;;;;-4.78;97.34;97457.89;105533;1290;22660;-80
2022/12/17 18:10:14;;;;;;;58.10;31.00;;;;;;;-4.76;97.40;97460.48;105479;1288;22465;-80
2022/12/17 18:15:32;;;;;;;74.90;37.50;;;;;;;-4.72;97.77;97462.31;105498;1303;25595;-79
2022/12/17 18:18:01;;;;;;;73.10;35.90;;;;;;;-4.71;97.95;97460.31;105509;1284;23938;-79
2022/12/17 18:20:30;;;;;;;82.80;39.00;;;;;;;-4.71;97.76;97463.55;105497;1290;22471;-79
2022/12/17 18:22:59;;;;;;;80.10;37.90;;;;;;;-4.71;97.64;97462.70;105534;1303;22582;-80
2022/12/17 18:25:30;;;;;;;86.80;41.70;;;;;;;-4.72;97.56;97464.55;105504;1302;25267;-80
2022/12/17 18:27:59;;;;;;;70.10;34.70;;;;;;;-4.72;97.48;97466.58;105521;1296;25377;-80
2022/12/17 18:30:28;;;;;;;83.10;39.70;;;;;;;-4.70;97.58;97472.75;105541;1297;22506;-80
2022/12/17 18:32:59;;;;;;;58.00;27.80;;;;;;;-4.67;97.55;97480.21;105532;1302;22695;-79
2022/12/17 18:35:28;;;;;;;82.80;40.30;;;;;;;-4.66;97.51;97484.36;105502;1303;53727;-79
2022/12/17 18:38:00;;;;;;;85.60;39.20;;;;;;;-4.65;97.40;97489.09;105483;1296;22474;-80
2022/12/17 18:40:29;;;;;;;74.50;35.00;;;;;;;-4.67;97.33;97493.64;105535;1277;22496;-79
2022/12/17 18:45:50;;;;;;;79.20;35.50;;;;;;;-4.68;97.43;97496.52;105703;1289;36551;-79
2022/12/17 18:48:21;;;;;;;73.60;34.30;;;;;;;-4.67;97.31;97499.36;105770;1302;22472;-79
2022/12/17 18:50:52;;;;;;;60.20;27.80;;;;;;;-4.70;97.32;97501.88;105715;1283;22470;-79
2022/12/17 18:53:24;;;;;;;59.70;25.80;;;;;;;-4.73;97.35;97501.70;105570;1296;25571;-79
2022/12/17 18:55:53;;;;;;;77.70;32.40;;;;;;;-4.76;97.25;97509.95;105694;1302;24257;-79
2022/12/17 18:58:23;;;;;;;58.00;27.00;;;;;;;-4.78;97.33;97506.57;105694;1300;22504;-79
2022/12/17 19:00:52;;;;;;;80.20;39.40;;;;;;;-4.79;97.41;97505.39;105715;1295;22521;-79
2022/12/17 19:03:22;;;;;;;80.20;38.10;;;;;;;-4.77;97.56;97511.27;105710;1295;26228;-79
2022/12/17 19:05:52;;;;;;;76.90;38.90;;;;;;;-4.77;97.53;97508.02;105451;1295;24897;-79
2022/12/17 19:08:23;;;;;;;80.00;35.10;;;;;;;-4.77;97.46;97513.98;105555;1277;22569;-79
2022/12/17 19:10:52;;;;;;;;;;;;;;;-4.76;97.44;97516.70;105477;1304;24386;-79
2022/12/17 19:13:21;;;;;;;81.10;37.20;;;;;;;-4.74;97.48;97520.84;105424;1284;22471;-79
2022/12/17 19:15:51;;;;;;;70.30;34.30;;;;;;;-4.73;97.53;97525.34;105514;1302;22924;-79
2022/12/17 19:18:20;;;;;;;78.60;33.50;;;;;;;-4.72;97.53;97524.02;105535;1302;22489;-79
2022/12/17 19:20:57;;;;;;;71.00;34.40;;;;;;;-4.72;97.44;97528.14;105543;1302;25384;-79
2022/12/17 19:23:28;;;;;;;72.90;32.40;;;;;;;-4.71;97.34;97534.26;105494;1302;33014;-79
2022/12/17 19:26:06;;;;;;;79.60;38.00;;;;;;;-4.71;97.21;97542.37;105744;1302;22783;-80
2022/12/17 19:28:36;;;;;;;78.40;37.90;;;;;;;-4.71;97.38;97545.18;105754;1285;22537;-79
2022/12/17 19:31:05;;;;;;;68.90;33.60;;;;;;;-4.72;97.47;97544.02;105769;1304;22466;-79
2022/12/17 19:33:34;;;;;;;52.30;25.50;;;;;;;-4.72;97.37;97547.52;105727;1282;22473;-79
2022/12/17 19:36:06;;;;;;;70.60;32.70;;;;;;;-4.74;97.40;97555.98;105741;1290;22496;-79
2022/12/17 19:38:36;;;;;;;80.10;39.40;;;;;;;-4.76;97.19;97554.92;105748;1288;22948;-80
2022/12/17 19:41:07;;;;;;;74.40;34.50;;;;;;;-4.76;97.37;97556.02;105759;1304;22446;-79
2022/12/17 19:43:37;;;;;;;92.50;44.80;;;;;;;-4.77;97.54;97563.19;105728;1282;43452;-79
2022/12/17 19:46:10;;;;;;;79.00;38.10;;;;;;;-4.78;97.43;97567.71;105758;1300;23700;-79
2022/12/17 19:48:41;;;;;;;79.50;39.60;;;;;;;-4.78;97.23;97572.58;105762;1285;24092;-79
2022/12/17 19:51:14;;;;;;;66.80;33.10;;;;;;;-4.78;97.31;97572.91;105700;1303;22816;-79
2022/12/17 19:53:45;;;;;;;79.00;38.60;;;;;;;-4.78;97.29;97579.96;105732;1289;22465;-79
2022/12/17 19:56:19;;;;;;;76.60;36.40;;;;;;;-4.78;97.31;97579.45;105782;1302;22496;-79
2022/12/17 19:58:51;;;;;;;65.60;28.40;;;;;;;-4.80;97.15;97579.77;105660;1303;24209;-79
2022/12/17 20:01:23;;;;;;;65.30;31.20;;;;;;;-4.84;96.69;97585.20;105782;1281;24286;-79
2022/12/17 20:03:53;;;;;;;70.50;31.60;;;;;;;-4.89;96.76;97594.83;105681;1286;39154;-79
2022/12/17 20:06:22;;;;;;;;;;;;;;;-4.91;96.96;97603.05;105767;1284;25496;-79
2022/12/17 20:08:52;;;;;;;77.50;33.60;;;;;;;-4.93;96.97;97605.64;105796;1292;22455;-79
2022/12/17 20:11:33;;;;;;;83.90;37.90;;;;;;;-4.96;96.69;97607.14;105715;1285;22523;-79
2022/12/17 20:14:05;;;;;;;66.20;26.10;;;;;;;-4.99;96.89;97612.95;105750;1294;22679;-79
2022/12/17 20:16:36;;;;;;;71.90;31.20;;;;;;;-5.01;96.75;97616.52;105820;1279;23835;-79
2022/12/17 20:19:08;;;;;;;88.10;40.50;;;;;;;-5.06;96.94;97618.23;105711;1304;22470;-79
2022/12/17 20:21:37;;;;;;;78.70;34.40;;;;;;;-5.11;96.92;97622.43;105703;1286;22924;-79
2022/12/17 20:24:07;;;;;;;65.50;29.00;;;;;;;-5.12;96.93;97628.48;105472;1298;45587;-80
2022/12/17 20:26:36;;;;;;;68.10;32.50;;;;;;;-5.15;96.88;97628.05;105678;1294;25388;-79
2022/12/17 20:29:05;;;;;;;62.70;27.90;;;;;;;-5.19;97.09;97623.67;105778;1295;22480;-79
2022/12/17 20:31:35;;;;;;;73.70;29.90;;;;;;;-5.25;97.39;97630.79;105792;1289;22608;-79
2022/12/17 20:34:06;;;;;;;65.40;30.60;;;;;;;-5.27;97.46;97626.52;105699;1295;31851;-79
2022/12/17 20:36:35;;;;;;;73.90;30.90;;;;;;;-5.32;97.56;97636.00;105814;1300;22546;-79
2022/12/17 20:39:04;;;;;;;63.40;28.60;;;;;;;-5.35;97.51;97647.98;105685;1302;22473;-79
2022/12/17 20:41:35;;;;;;;56.00;29.10;;;;;;;-5.34;97.68;97648.10;105779;1295;22473;-79
2022/12/17 20:44:05;;;;;;;72.10;33.40;;;;;;;-5.33;97.76;97657.58;105557;1297;22568;-79
2022/12/17 20:46:36;;;;;;;70.80;31.80;;;;;;;-5.32;97.58;97656.86;105782;1294;24246;-79
2022/12/17 20:49:07;;;;;;;89.90;40.10;;;;;;;-5.32;97.72;97666.85;105797;1302;22472;-79
2022/12/17 20:51:36;;;;;;;76.60;32.20;;;;;;;-5.30;97.94;97672.00;105749;1304;22486;-79
2022/12/17 20:54:07;;;;;;;74.90;30.30;;;;;;;-5.30;97.84;97673.23;105605;1288;23794;-79
2022/12/17 20:56:36;;;;;;;84.30;35.70;;;;;;;-5.32;97.90;97672.15;105590;1303;25398;-79
2022/12/17 20:59:07;;;;;;;75.00;32.90;;;;;;;-5.32;98.11;97678.77;105721;1303;22621;-79
2022/12/17 21:01:36;;;;;;;57.80;25.30;;;;;;;-5.33;98.04;97674.34;105595;1292;22489;-79
2022/12/17 21:04:06;;;;;;;78.20;34.70;;;;;;;-5.34;98.14;97677.15;105744;1295;22440;-79
2022/12/17 21:06:38;;;;;;;79.40;35.40;;;;;;;-5.35;98.29;97681.92;105739;1292;22471;-78
2022/12/17 21:09:07;;;;;;;75.00;33.70;;;;;;;-5.38;98.47;97687.13;105616;1302;22546;-79
2022/12/17 21:11:37;;;;;;;90.70;38.30;;;;;;;-5.39;98.33;97691.86;105804;1302;22746;-79
2022/12/17 21:14:09;;;;;;;86.70;36.20;;;;;;;-5.42;98.41;97684.61;105724;1295;23864;-79
2022/12/17 21:16:39;;;;;;;78.90;32.10;;;;;;;-5.46;98.73;97693.12;105716;1303;22516;-79
2022/12/17 21:19:12;;;;;;;68.50;27.70;;;;;;;-5.48;98.83;97696.66;105748;1289;22535;-79
2022/12/17 21:21:40;;;;;;;74.30;32.00;;;;;;;-5.48;98.95;97701.48;105706;1291;22505;-79
2022/12/17 21:24:10;;;;;;;85.70;35.60;;;;;;;-5.48;99.02;97710.09;105777;1300;25255;-79
2022/12/17 21:26:41;;;;;;;67.60;29.90;;;;;;;-5.48;99.16;97714.74;105760;1304;22458;-79
2022/12/17 21:29:10;;;;;;;105.10;43.60;;;;;;;-5.49;99.10;97710.20;105762;1302;22475;-79
2022/12/17 21:31:41;;;;;;;71.10;29.50;;;;;;;-5.53;99.31;97714.31;105777;1282;22498;-79
2022/12/17 21:34:12;;;;;;;82.90;36.30;;;;;;;-5.55;99.48;97711.75;105720;1295;22543;-79
2022/12/17 21:36:41;;;;;;;84.70;36.20;;;;;;;-5.55;99.71;97718.52;105499;1303;22819;-79
2022/12/17 21:39:11;;;;;;;103.00;42.70;;;;;;;-5.57;99.75;97717.31;105542;1297;22920;-79
2022/12/17 21:41:42;;;;;;;81.10;34.00;;;;;;;-5.58;99.80;97725.89;105469;1303;23850;-79
2022/12/17 21:44:13;;;;;;;88.10;37.30;;;;;;;-5.61;99.89;97722.90;105460;1296;31953;-79
2022/12/17 21:46:41;;;;;;;84.50;33.20;;;;;;;-5.62;99.91;97728.39;105524;1298;22663;-79
2022/12/17 21:49:13;;;;;;;83.70;35.80;;;;;;;-5.64;100.00;97730.41;105555;1277;22461;-79
2022/12/17 21:51:41;;;;;;;85.90;32.90;;;;;;;-5.65;99.96;97737.41;105529;1302;22485;-79
2022/12/17 21:54:10;;;;;;;73.50;28.80;;;;;;;-5.67;99.99;97739.42;105444;1305;22450;-79
2022/12/17 21:56:39;;;;;;;122.80;46.50;;;;;;;-5.67;100.00;97746.34;105447;1305;25385;-79
2022/12/17 21:59:07;;;;;;;113.50;39.90;;;;;;;-5.68;100.00;97749.41;105486;1303;22493;-78
2022/12/17 22:01:36;;;;;;;87.40;36.80;;;;;;;-5.68;100.00;97750.44;105539;1293;22466;-79
2022/12/17 22:04:05;;;;;;;95.80;37.40;;;;;;;-5.68;100.00;97749.50;105476;1303;22447;-79
2022/12/17 22:06:37;;;;;;;84.10;32.50;;;;;;;-5.69;100.00;97754.30;105546;1303;22470;-79
2022/12/17 22:09:09;;;;;;;116.80;43.60;;;;;;;-5.70;100.00;97756.08;105392;1292;23711;-79
2022/12/17 22:11:38;;;;;;;91.30;36.20;;;;;;;-5.71;100.00;97765.14;105486;1297;24274;-79
2022/12/17 22:14:10;;;;;;;126.50;53.30;;;;;;;-5.71;100.00;97770.72;105549;1291;23924;-79
2022/12/17 22:16:41;;;;;;;103.50;40.00;;;;;;;-5.72;100.00;97770.74;105812;1288;22461;-78
2022/12/17 22:19:15;;;;;;;94.30;39.20;;;;;;;-5.71;100.00;97779.11;105599;1289;22615;-78
2022/12/17 22:21:45;;;;;;;93.00;38.00;;;;;;;-5.72;100.00;97781.08;105718;1285;22458;-79
2022/12/17 22:24:16;;;;;;;83.20;35.50;;;;;;;-5.72;100.00;97787.88;105684;1281;22790;-79
2022/12/17 22:26:46;;;;;;;85.40;36.70;;;;;;;-5.74;99.99;97793.20;105499;1290;22465;-78
2022/12/17 22:32:58;;;;;;;122.50;45.50;;;;;;;-5.77;99.99;97800.52;105552;1302;22521;-79
2022/12/17 22:34:57;;;;;;;95.70;36.70;;;;;;;-5.79;99.77;97810.02;105493;1298;22640;-79
2022/12/17 22:37:26;;;;;;;57.70;23.70;;;;;;;-5.80;99.75;97812.55;105562;1284;24224;-79
2022/12/17 22:39:54;;;;;;;72.50;30.50;;;;;;;-5.81;99.36;97818.61;105544;1288;24379;-79
2022/12/17 22:45:10;;;;;;;63.20;25.00;;;;;;;-5.89;98.67;97822.71;105477;1303;24075;-79
2022/12/17 22:47:39;;;;;;;57.90;21.00;;;;;;;-5.95;98.29;97827.81;105535;1288;22485;-78
2022/12/17 22:50:08;;;;;;;48.90;20.60;;;;;;;-5.99;98.13;97828.11;105522;1303;22484;-78
2022/12/17 22:52:37;;;;;;;46.00;20.20;;;;;;;-6.02;97.76;97828.27;105506;1303;23367;-78
2022/12/17 22:55:08;;;;;;;57.00;23.90;;;;;;;-6.07;97.37;97834.85;105484;1303;22523;-79
2022/12/17 22:57:36;;;;;;;44.00;21.60;;;;;;;-6.09;97.28;97840.23;105534;1296;22497;-78
2022/12/17 23:00:15;;;;;;;63.90;23.90;;;;;;;-6.12;97.07;97842.60;105520;1290;24435;-78
2022/12/17 23:02:43;;;;;;;61.10;25.20;;;;;;;-6.14;96.91;97844.16;105532;1288;24276;-79
2022/12/17 23:05:12;;;;;;;48.80;20.40;;;;;;;-6.17;96.77;97842.90;105495;1297;22495;-79
2022/12/17 23:07:40;;;;;;;62.60;25.30;;;;;;;-6.21;96.53;97842.03;105484;1283;22493;-78
2022/12/17 23:10:10;;;;;;;52.70;21.50;;;;;;;-6.25;96.17;97843.63;105532;1287;22507;-78
2022/12/17 23:12:51;;;;;;;62.20;23.70;;;;;;;-6.29;96.09;97845.55;105502;1303;22459;-78
2022/12/17 23:15:30;;;;;;;44.20;15.80;;;;;;;-6.33;95.83;97853.13;105521;1294;22523;-78
2022/12/17 23:18:00;;;;;;;60.90;22.60;;;;;;;-6.35;95.73;97854.85;105548;1288;22522;-79
2022/12/17 23:20:29;;;;;;;;;;;;;;;-6.36;95.70;97857.25;105549;1306;22536;-78
2022/12/17 23:22:58;;;;;;;58.90;23.70;;;;;;;-6.38;95.73;97866.73;105497;1296;24888;-79
2022/12/17 23:25:28;;;;;;;57.00;19.30;;;;;;;-6.41;95.52;97864.71;105424;1296;28871;-78
2022/12/17 23:27:56;;;;;;;;;;;;;;;-6.43;95.56;97871.80;105650;1303;22493;-78
2022/12/17 23:30:25;;;;;;;51.50;16.70;;;;;;;-6.46;95.77;97875.52;105548;1302;22758;-79
2022/12/17 23:32:56;;;;;;;66.70;27.20;;;;;;;-6.46;95.66;97875.41;105489;1306;22960;-78
2022/12/17 23:35:25;;;;;;;69.80;28.10;;;;;;;-6.46;95.63;97877.48;105489;1305;22511;-79
2022/12/17 23:37:57;;;;;;;51.20;18.50;;;;;;;-6.49;95.46;97878.17;105530;1299;22458;-78
2022/12/17 23:40:26;;;;;;;60.20;21.70;;;;;;;-6.50;95.50;97882.76;105495;1291;22538;-79
2022/12/17 23:42:56;;;;;;;69.30;24.50;;;;;;;-6.52;95.37;97888.98;105488;1303;25954;-78
2022/12/17 23:45:25;;;;;;;70.90;28.00;;;;;;;-6.55;95.55;97891.14;105255;1303;22816;-78
2022/12/17 23:47:53;;;;;;;59.00;23.30;;;;;;;-6.56;95.25;97895.89;105276;1305;22532;-78
2022/12/17 23:50:23;;;;;;;73.30;29.50;;;;;;;-6.54;95.56;97896.16;105287;1303;22550;-78
2022/12/17 23:52:52;;;;;;;75.10;28.70;;;;;;;-6.50;95.61;97897.94;105266;1298;24286;-78
2022/12/17 23:55:20;;;;;;;75.80;28.00;;;;;;;-6.48;95.59;97903.04;105268;1281;22551;-78
2022/12/17 23:57:53;;;;;;;77.20;25.30;;;;;;;-6.47;95.63;97906.06;105302;1284;22474;-78
